Terminal Aerodrome Forecast
Issued by NWS Wilmington, OH

Current Version | Previous Version | Graphics & Text | Print | Product List | Glossary On
Versions: 1 2 3 4 5 6 7 8 9 10 11 12 13 14 15 16 17 18 19 20 21 22 23 24 25 26 27 28 29
865
FTUS41 KILN 280252 AAA
TAFILN
TAF AMD
KILN 280252Z 2803/2824 VRB03KT P6SM SCT150
     FM280800 VRB03KT 6SM BR VCSH BKN040 BKN150
     FM280900 VRB03KT 6SM -SHRA BR BKN040 BKN150
      TEMPO 2811/2815 5SM SHRA BR OVC035
     FM281800 20005KT P6SM VCTS BKN040CB BKN150=

USA.gov is the U.S. government's official web portal to all federal, state and local government web resources and services.